Time;durP1;ratioP1;P1;durP2;ratioP2;P2;SDS_P1;SDS_P2;PMS_P1;PMS_P2;Temp;Humidity;BMP_temperature;BMP_pressure;BME280_temperature;BME280_humidity;BME280_pressure;Samples;Min_cycle;Max_cycle;Signal;HPM_P1;HPM_P2
2022/09/19 00:03:20;;;;;;;4.35;3.60;;;;;;;;;;10286554;28;20486;-82
2022/09/19 00:08:24;;;;;;;4.30;3.90;;;;;;;;;;10297797;28;20430;-82
2022/09/19 00:13:26;;;;;;;5.90;4.30;;;;;;;;;;10287099;28;20432;-83
2022/09/19 00:18:28;;;;;;;5.82;4.10;;;;;;;;;;10280203;28;20430;-83
2022/09/19 00:28:51;;;;;;;5.57;4.22;;;;;;;;;;10281984;28;20407;-83
2022/09/19 00:33:54;;;;;;;6.23;4.47;;;;;;;;;;10284566;28;20493;-81
2022/09/19 00:38:57;;;;;;;5.38;4.00;;;;;;;;;;10295388;28;20537;-83
2022/09/19 00:44:01;;;;;;;6.20;4.22;;;;;;;;;;10298751;28;21045;-82
2022/09/19 00:49:06;;;;;;;5.00;4.10;;;;;;;;;;10321726;28;20500;-84
2022/09/19 00:54:13;;;;;;;4.40;4.00;;;;;;;;;;10318295;28;20484;-83
2022/09/19 00:59:16;;;;;;;5.40;4.13;;;;;;;;;;10317988;28;20432;-84
2022/09/19 01:04:19;;;;;;;5.60;4.20;;;;;;;;;;10318531;28;20405;-84
2022/09/19 01:09:47;;;;;;;4.40;3.53;;;;;;;;;;10320235;28;20495;-84
2022/09/19 01:15:06;;;;;;;5.07;4.00;;;;;;;;;;10297656;28;20926;-83
2022/09/19 01:20:35;;;;;;;4.50;3.70;;;;;;;;;;10320351;28;20460;-84
2022/09/19 01:25:49;;;;;;;5.17;3.80;;;;;;;;;;10319074;28;20423;-83
2022/09/19 01:36:16;;;;;;;4.00;3.63;;;;;;;;;;10317619;28;20461;-84
2022/09/19 01:41:21;;;;;;;4.63;3.70;;;;;;;;;;10317850;28;20951;-84
2022/09/19 01:46:35;;;;;;;4.07;3.63;;;;;;;;;;10319875;28;20908;-84
2022/09/19 01:51:43;;;;;;;3.85;3.35;;;;;;;;;;10316183;28;20415;-83
2022/09/19 01:56:56;;;;;;;4.05;3.40;;;;;;;;;;10313767;28;20424;-83
2022/09/19 02:02:07;;;;;;;3.85;3.50;;;;;;;;;;10313126;28;20436;-84
2022/09/19 02:07:15;;;;;;;4.88;3.95;;;;;;;;;;10308091;28;20443;-84
2022/09/19 02:12:20;;;;;;;5.47;3.63;;;;;;;;;;10295540;28;20434;-84
2022/09/19 02:17:27;;;;;;;4.82;3.40;;;;;;;;;;10317414;28;20409;-84
2022/09/19 02:22:31;;;;;;;4.43;3.65;;;;;;;;;;10314111;28;20789;-83
2022/09/19 02:27:39;;;;;;;5.20;3.70;;;;;;;;;;10301559;28;20413;-84
2022/09/19 02:32:46;;;;;;;4.28;3.67;;;;;;;;;;10316766;28;20496;-84
2022/09/19 02:37:55;;;;;;;3.67;3.28;;;;;;;;;;10316818;28;20524;-83
2022/09/19 02:43:05;;;;;;;3.97;3.27;;;;;;;;;;10317853;28;20503;-84
2022/09/19 02:48:14;;;;;;;3.53;3.20;;;;;;;;;;10314091;28;20416;-83
2022/09/19 02:53:20;;;;;;;4.90;3.05;;;;;;;;;;10314689;28;20501;-83
2022/09/19 02:58:23;;;;;;;4.77;3.10;;;;;;;;;;10317239;28;20991;-84
2022/09/19 03:08:52;;;;;;;3.80;3.07;;;;;;;;;;10315960;28;20404;-83
2022/09/19 03:13:58;;;;;;;3.10;2.80;;;;;;;;;;10313975;28;20488;-84
2022/09/19 03:19:03;;;;;;;4.70;2.97;;;;;;;;;;10317281;28;20436;-84
2022/09/19 03:24:06;;;;;;;3.45;2.75;;;;;;;;;;10316202;28;20400;-83
2022/09/19 03:29:09;;;;;;;3.22;2.90;;;;;;;;;;10314735;28;20496;-83
2022/09/19 03:34:13;;;;;;;5.00;2.90;;;;;;;;;;10315009;28;20483;-83
2022/09/19 03:39:15;;;;;;;3.08;2.60;;;;;;;;;;10312347;28;20467;-83
2022/09/19 03:44:19;;;;;;;3.37;2.47;;;;;;;;;;10313392;28;20421;-84
2022/09/19 03:49:22;;;;;;;3.57;2.53;;;;;;;;;;10311745;28;20870;-84
2022/09/19 03:54:24;;;;;;;3.60;2.40;;;;;;;;;;10312043;28;20491;-84
2022/09/19 03:59:26;;;;;;;4.30;2.60;;;;;;;;;;10311242;28;20881;-84
2022/09/19 04:04:29;;;;;;;4.13;2.38;;;;;;;;;;10317533;28;20990;-83
2022/09/19 04:09:31;;;;;;;4.30;2.60;;;;;;;;;;10306152;28;20408;-84
2022/09/19 04:14:34;;;;;;;4.83;2.43;;;;;;;;;;10318207;28;20492;-84
2022/09/19 04:19:37;;;;;;;3.10;2.20;;;;;;;;;;10323605;28;20429;-83
2022/09/19 04:24:43;;;;;;;4.22;2.22;;;;;;;;;;10308665;28;20829;-84
2022/09/19 04:29:44;;;;;;;3.22;2.00;;;;;;;;;;10322962;28;20433;-84
2022/09/19 04:34:49;;;;;;;2.47;2.00;;;;;;;;;;10308341;28;21079;-84
2022/09/19 04:39:51;;;;;;;2.87;1.90;;;;;;;;;;10298339;28;20792;-84
2022/09/19 04:44:53;;;;;;;3.53;1.90;;;;;;;;;;10317585;28;20464;-83
2022/09/19 04:49:57;;;;;;;5.00;2.08;;;;;;;;;;10308837;28;20584;-83
2022/09/19 04:54:59;;;;;;;7.10;1.97;;;;;;;;;;10310690;28;20415;-84
2022/09/19 05:00:01;;;;;;;2.60;1.67;;;;;;;;;;10301498;28;20517;-83
2022/09/19 05:05:06;;;;;;;2.57;1.80;;;;;;;;;;10293315;28;20449;-84
2022/09/19 05:10:09;;;;;;;5.17;1.93;;;;;;;;;;10290072;28;20823;-84
2022/09/19 05:15:11;;;;;;;5.28;2.20;;;;;;;;;;10289464;28;20402;-83
2022/09/19 05:20:14;;;;;;;3.77;2.63;;;;;;;;;;10299928;28;20525;-82
2022/09/19 05:25:16;;;;;;;6.70;3.97;;;;;;;;;;10284960;28;20399;-84
2022/09/19 05:30:21;;;;;;;5.53;4.00;;;;;;;;;;10284163;28;20443;-85
2022/09/19 05:35:25;;;;;;;6.10;3.88;;;;;;;;;;10298980;28;20493;-84
2022/09/19 05:40:27;;;;;;;6.35;3.70;;;;;;;;;;10291648;28;20423;-82
2022/09/19 05:45:29;;;;;;;5.78;3.70;;;;;;;;;;10289731;28;20706;-83
2022/09/19 05:50:33;;;;;;;7.82;4.53;;;;;;;;;;10290002;28;20522;-83
2022/09/19 05:55:36;;;;;;;5.87;3.87;;;;;;;;;;10287452;28;20410;-84
2022/09/19 06:00:38;;;;;;;4.93;3.20;;;;;;;;;;10292243;28;20944;-82
2022/09/19 06:05:43;;;;;;;6.40;3.30;;;;;;;;;;10300651;28;20413;-82
2022/09/19 06:10:46;;;;;;;6.25;3.05;;;;;;;;;;10284461;28;20422;-84
2022/09/19 06:15:48;;;;;;;4.45;3.50;;;;;;;;;;10301933;28;20432;-83
2022/09/19 06:20:53;;;;;;;5.15;2.80;;;;;;;;;;10309206;28;20448;-83
2022/09/19 06:25:55;;;;;;;6.53;3.50;;;;;;;;;;10290908;28;20410;-83
2022/09/19 06:31:01;;;;;;;9.43;3.30;;;;;;;;;;10293503;28;21058;-84
2022/09/19 06:36:05;;;;;;;6.35;3.67;;;;;;;;;;10295565;28;20413;-84
2022/09/19 06:41:08;;;;;;;4.70;3.53;;;;;;;;;;10302196;28;20421;-84
2022/09/19 06:46:10;;;;;;;8.67;3.73;;;;;;;;;;10303952;28;20487;-84
2022/09/19 06:51:13;;;;;;;5.43;3.53;;;;;;;;;;10302404;28;20405;-84
2022/09/19 06:56:15;;;;;;;5.35;3.25;;;;;;;;;;10302297;28;20959;-84
2022/09/19 07:01:17;;;;;;;3.43;2.80;;;;;;;;;;10300906;28;21065;-84
2022/09/19 07:06:20;;;;;;;4.45;3.08;;;;;;;;;;10302517;28;20409;-83
2022/09/19 07:11:23;;;;;;;4.95;2.80;;;;;;;;;;10301906;28;20901;-83
2022/09/19 07:16:25;;;;;;;3.73;2.97;;;;;;;;;;10310499;28;20441;-84
2022/09/19 07:21:29;;;;;;;5.28;2.90;;;;;;;;;;10315985;28;20429;-84
2022/09/19 07:26:31;;;;;;;5.60;3.17;;;;;;;;;;10316363;28;20493;-84
2022/09/19 07:31:33;;;;;;;4.03;2.97;;;;;;;;;;10328129;28;20491;-83
2022/09/19 07:36:36;;;;;;;5.85;2.63;;;;;;;;;;10304279;28;20488;-84
2022/09/19 07:41:38;;;;;;;5.90;2.85;;;;;;;;;;10311886;28;20443;-84
2022/09/19 07:47:26;;;;;;;3.20;2.38;;;;;;;;;;10310585;28;20415;-84
2022/09/19 07:52:03;;;;;;;6.10;2.73;;;;;;;;;;10301544;28;20481;-83
2022/09/19 07:57:05;;;;;;;7.55;3.00;;;;;;;;;;10301959;28;20416;-83
2022/09/19 08:02:07;;;;;;;4.20;2.60;;;;;;;;;;10289876;28;20934;-84
2022/09/19 08:07:10;;;;;;;6.22;2.78;;;;;;;;;;10306999;28;20405;-83
2022/09/19 08:12:12;;;;;;;3.97;2.83;;;;;;;;;;10306239;28;20413;-84
2022/09/19 08:17:14;;;;;;;4.50;2.80;;;;;;;;;;10316378;28;20404;-83
2022/09/19 08:22:17;;;;;;;3.97;2.80;;;;;;;;;;10321994;28;20435;-83
2022/09/19 08:27:19;;;;;;;3.90;2.90;;;;;;;;;;10306235;28;21299;-84
2022/09/19 08:32:21;;;;;;;4.47;3.30;;;;;;;;;;10301106;28;20406;-84
2022/09/19 08:37:25;;;;;;;4.40;3.30;;;;;;;;;;10299757;28;20822;-84
2022/09/19 08:42:34;;;;;;;4.05;3.05;;;;;;;;;;10298557;28;20434;-83
2022/09/19 08:47:37;;;;;;;4.70;3.08;;;;;;;;;;10298683;28;20402;-85
2022/09/19 08:52:45;;;;;;;5.23;3.23;;;;;;;;;;10306609;28;20401;-84
2022/09/19 08:57:54;;;;;;;5.60;3.20;;;;;;;;;;10297464;28;20440;-84
2022/09/19 09:03:00;;;;;;;6.75;3.70;;;;;;;;;;10295872;28;20430;-83
2022/09/19 09:08:13;;;;;;;7.07;2.83;;;;;;;;;;10295143;28;20879;-84
2022/09/19 09:13:23;;;;;;;3.65;2.50;;;;;;;;;;10294021;28;20505;-84
2022/09/19 09:18:38;;;;;;;3.20;2.37;;;;;;;;;;10309708;28;20422;-84
2022/09/19 09:23:45;;;;;;;3.08;2.40;;;;;;;;;;10305715;28;20502;-83
2022/09/19 09:28:53;;;;;;;3.87;2.30;;;;;;;;;;10284428;28;20411;-84
2022/09/19 09:33:59;;;;;;;3.30;2.50;;;;;;;;;;10305283;28;20491;-84
2022/09/19 09:39:11;;;;;;;4.00;2.83;;;;;;;;;;10289636;28;20513;-84
2022/09/19 09:44:26;;;;;;;5.53;3.30;;;;;;;;;;10296397;28;20871;-83
2022/09/19 09:49:30;;;;;;;4.30;2.80;;;;;;;;;;10288162;28;20415;-84
2022/09/19 10:05:33;;;;;;;3.10;2.40;;;;;;;;;;10285314;28;20880;-84
2022/09/19 10:10:39;;;;;;;8.88;2.95;;;;;;;;;;10281100;28;20406;-84
2022/09/19 10:15:41;;;;;;;4.27;2.73;;;;;;;;;;10298864;28;20436;-84
2022/09/19 10:20:49;;;;;;;4.13;1.80;;;;;;;;;;10317524;28;20464;-84
2022/09/19 10:25:59;;;;;;;2.15;1.63;;;;;;;;;;10317427;28;20441;-84
2022/09/19 10:31:04;;;;;;;2.97;1.60;;;;;;;;;;10317102;28;20404;-84
2022/09/19 10:36:16;;;;;;;2.13;1.30;;;;;;;;;;10316333;28;20444;-85
2022/09/19 10:41:22;;;;;;;2.30;1.10;;;;;;;;;;10291094;28;20798;-84
2022/09/19 10:46:35;;;;;;;1.55;1.10;;;;;;;;;;10306563;28;20412;-83
2022/09/19 10:51:44;;;;;;;1.15;1.05;;;;;;;;;;10307055;28;20845;-85
2022/09/19 10:56:47;;;;;;;1.13;0.82;;;;;;;;;;10306467;28;20405;-84
2022/09/19 11:02:05;;;;;;;1.97;1.13;;;;;;;;;;10302420;28;20429;-85
2022/09/19 11:07:16;;;;;;;2.20;0.90;;;;;;;;;;10303657;28;20487;-85
2022/09/19 11:12:20;;;;;;;1.20;0.93;;;;;;;;;;10314405;28;21188;-84
2022/09/19 11:17:58;;;;;;;1.90;0.80;;;;;;;;;;10287534;28;20807;-84
2022/09/19 11:23:28;;;;;;;1.30;0.80;;;;;;;;;;10247184;28;20434;-84
2022/09/19 11:28:43;;;;;;;1.30;0.60;;;;;;;;;;10297703;28;20825;-85
2022/09/19 11:33:53;;;;;;;2.92;0.63;;;;;;;;;;10306316;28;20785;-83
2022/09/19 11:39:03;;;;;;;0.70;0.50;;;;;;;;;;10302116;28;20425;-85
2022/09/19 11:44:47;;;;;;;0.35;0.30;;;;;;;;;;10289817;28;20459;-85
2022/09/19 11:50:11;;;;;;;1.20;0.40;;;;;;;;;;10215061;28;20472;-84
2022/09/19 11:55:27;;;;;;;0.90;0.47;;;;;;;;;;10267555;28;20496;-85
2022/09/19 12:00:37;;;;;;;0.70;0.50;;;;;;;;;;10279252;28;20430;-84
2022/09/19 12:05:57;;;;;;;0.30;0.30;;;;;;;;;;10283943;28;20417;-84
2022/09/19 12:11:08;;;;;;;1.60;0.80;;;;;;;;;;10283259;28;20887;-85
2022/09/19 12:16:20;;;;;;;5.35;1.23;;;;;;;;;;10289956;28;20425;-85
2022/09/19 12:21:23;;;;;;;1.75;0.73;;;;;;;;;;10282768;28;20462;-86
2022/09/19 12:26:29;;;;;;;1.83;0.90;;;;;;;;;;10292888;28;20974;-84
2022/09/19 12:31:38;;;;;;;1.00;0.70;;;;;;;;;;10287946;28;20415;-85
2022/09/19 12:36:46;;;;;;;0.87;0.50;;;;;;;;;;10293833;28;20404;-85
2022/09/19 12:41:55;;;;;;;0.60;0.50;;;;;;;;;;10282719;28;20426;-85
2022/09/19 12:47:04;;;;;;;0.63;0.50;;;;;;;;;;10286052;28;20903;-85
2022/09/19 12:52:14;;;;;;;1.00;0.50;;;;;;;;;;10292307;28;20425;-85
2022/09/19 12:57:21;;;;;;;0.70;0.47;;;;;;;;;;10287033;28;20420;-85
2022/09/19 13:02:28;;;;;;;1.67;0.75;;;;;;;;;;10292484;28;20829;-84
2022/09/19 13:07:37;;;;;;;1.40;0.50;;;;;;;;;;10318865;28;20808;-84
2022/09/19 13:12:45;;;;;;;0.80;0.40;;;;;;;;;;10312321;28;20806;-84
2022/09/19 13:23:32;;;;;;;0.80;0.40;;;;;;;;;;10320421;28;20432;-83
2022/09/19 13:28:46;;;;;;;0.57;0.50;;;;;;;;;;10313565;28;20504;-84
2022/09/19 13:33:52;;;;;;;0.73;0.40;;;;;;;;;;10323605;28;20860;-85
2022/09/19 13:38:56;;;;;;;1.38;0.50;;;;;;;;;;10312086;28;20417;-83
2022/09/19 13:44:08;;;;;;;1.13;0.68;;;;;;;;;;10302499;28;20929;-84
2022/09/19 13:49:20;;;;;;;1.10;0.50;;;;;;;;;;10305176;28;20401;-84
2022/09/19 13:55:07;;;;;;;0.83;0.60;;;;;;;;;;10300370;28;21303;-84
2022/09/19 14:00:17;;;;;;;1.02;0.77;;;;;;;;;;10302082;28;21263;-85
2022/09/19 14:05:21;;;;;;;1.00;0.60;;;;;;;;;;10307644;28;20501;-83
2022/09/19 14:10:27;;;;;;;2.03;0.60;;;;;;;;;;10308223;28;20512;-84
2022/09/19 14:16:05;;;;;;;2.60;0.50;;;;;;;;;;10308559;28;20782;-85
2022/09/19 14:21:10;;;;;;;2.47;0.90;;;;;;;;;;10307637;28;20521;-84
2022/09/19 14:26:35;;;;;;;4.73;0.83;;;;;;;;;;10301643;28;20799;-84
2022/09/19 14:31:49;;;;;;;2.40;0.60;;;;;;;;;;10293169;28;20426;-83
2022/09/19 14:37:29;;;;;;;0.57;0.30;;;;;;;;;;10291219;28;20410;-84
2022/09/19 14:42:54;;;;;;;0.63;0.47;;;;;;;;;;10292374;28;20493;-84
2022/09/19 14:48:01;;;;;;;0.40;0.40;;;;;;;;;;10296905;28;20409;-83
2022/09/19 14:53:09;;;;;;;0.50;0.45;;;;;;;;;;10286011;28;20480;-84
2022/09/19 14:58:23;;;;;;;0.57;0.40;;;;;;;;;;10284855;28;20804;-84
2022/09/19 15:03:25;;;;;;;0.47;0.40;;;;;;;;;;10278885;28;20879;-83
2022/09/19 15:08:30;;;;;;;0.43;0.40;;;;;;;;;;10281163;28;20490;-85
2022/09/19 15:13:33;;;;;;;1.45;0.50;;;;;;;;;;10285653;28;20794;-85
2022/09/19 15:18:39;;;;;;;3.20;0.73;;;;;;;;;;10278098;28;20411;-84
2022/09/19 15:23:45;;;;;;;1.80;0.80;;;;;;;;;;10281199;28;20486;-84
2022/09/19 15:28:58;;;;;;;0.70;0.50;;;;;;;;;;10278884;28;20410;-86
2022/09/19 15:34:05;;;;;;;1.45;0.80;;;;;;;;;;10279090;28;20497;-86
2022/09/19 15:39:12;;;;;;;0.75;0.60;;;;;;;;;;10273566;28;20489;-83
2022/09/19 15:44:25;;;;;;;1.00;0.50;;;;;;;;;;10279748;28;20426;-86
2022/09/19 15:49:30;;;;;;;1.30;0.60;;;;;;;;;;10278056;28;20492;-81
2022/09/19 15:54:40;;;;;;;0.68;0.60;;;;;;;;;;10277846;28;20437;-83
2022/09/19 15:59:48;;;;;;;1.90;0.57;;;;;;;;;;10287384;28;20498;-82
2022/09/19 16:05:06;;;;;;;0.65;0.60;;;;;;;;;;10282993;28;20430;-84
2022/09/19 16:10:19;;;;;;;1.15;0.57;;;;;;;;;;10291701;28;20465;-82
2022/09/19 16:15:28;;;;;;;0.97;0.50;;;;;;;;;;10286094;28;20422;-85
2022/09/19 16:20:38;;;;;;;0.60;0.47;;;;;;;;;;10284748;28;20470;-85
2022/09/19 16:25:44;;;;;;;0.75;0.60;;;;;;;;;;10288435;28;20874;-84
2022/09/19 16:30:51;;;;;;;0.90;0.70;;;;;;;;;;10287254;28;20418;-84
2022/09/19 16:35:55;;;;;;;1.07;0.50;;;;;;;;;;10282364;28;20429;-84
2022/09/19 16:41:02;;;;;;;3.25;0.73;;;;;;;;;;10284336;28;21778;-84
2022/09/19 16:46:09;;;;;;;1.63;0.57;;;;;;;;;;10286553;28;20509;-84
2022/09/19 16:51:17;;;;;;;0.90;0.57;;;;;;;;;;10290530;28;20493;-82
2022/09/19 16:56:20;;;;;;;0.90;0.70;;;;;;;;;;10288044;28;20509;-81
2022/09/19 17:01:22;;;;;;;0.93;0.70;;;;;;;;;;10288848;28;20977;-82
2022/09/19 17:06:24;;;;;;;0.82;0.57;;;;;;;;;;10283640;28;20398;-83
2022/09/19 17:11:27;;;;;;;1.50;0.70;;;;;;;;;;10291196;28;20402;-81
2022/09/19 17:16:29;;;;;;;1.90;0.70;;;;;;;;;;10280946;28;20498;-82
2022/09/19 17:21:31;;;;;;;1.20;0.65;;;;;;;;;;10285088;28;20426;-83
2022/09/19 17:26:35;;;;;;;1.93;0.83;;;;;;;;;;10285148;28;20566;-83
2022/09/19 17:31:36;;;;;;;1.75;0.77;;;;;;;;;;10291017;28;20419;-82
2022/09/19 17:36:38;;;;;;;2.00;0.80;;;;;;;;;;10288633;28;20525;-85
2022/09/19 17:41:41;;;;;;;0.90;0.63;;;;;;;;;;10280588;28;20846;-83
2022/09/19 17:46:43;;;;;;;0.82;0.70;;;;;;;;;;10283153;28;20481;-83
2022/09/19 17:51:45;;;;;;;1.40;0.70;;;;;;;;;;10289434;28;20494;-83
2022/09/19 17:56:49;;;;;;;1.50;0.65;;;;;;;;;;10294971;28;20410;-83
2022/09/19 18:07:10;;;;;;;2.60;0.80;;;;;;;;;;10280279;28;20423;-83
2022/09/19 18:12:16;;;;;;;2.20;0.90;;;;;;;;;;10284467;28;20402;-83
2022/09/19 18:17:24;;;;;;;1.48;0.77;;;;;;;;;;10282904;28;20465;-84
2022/09/19 18:22:26;;;;;;;1.25;0.80;;;;;;;;;;10283172;28;20419;-83
2022/09/19 18:27:29;;;;;;;2.70;1.08;;;;;;;;;;10286851;28;20402;-84
2022/09/19 18:32:31;;;;;;;2.03;1.30;;;;;;;;;;10281659;28;20413;-83
2022/09/19 18:37:36;;;;;;;2.40;1.20;;;;;;;;;;10283659;28;20418;-84
2022/09/19 18:42:40;;;;;;;2.90;1.13;;;;;;;;;;10281009;28;20427;-84
2022/09/19 18:47:42;;;;;;;2.47;1.23;;;;;;;;;;10277472;28;20417;-83
2022/09/19 18:52:44;;;;;;;2.78;1.05;;;;;;;;;;10274325;28;20403;-83
2022/09/19 18:57:48;;;;;;;6.18;1.70;;;;;;;;;;10279465;28;20912;-83
2022/09/19 19:02:51;;;;;;;4.35;1.63;;;;;;;;;;10287040;28;20509;-83
2022/09/19 19:07:53;;;;;;;2.75;1.40;;;;;;;;;;10277078;28;20429;-84
2022/09/19 19:12:57;;;;;;;4.00;1.57;;;;;;;;;;10285646;28;20590;-83
2022/09/19 19:17:59;;;;;;;2.35;1.80;;;;;;;;;;10294914;28;20410;-83
2022/09/19 19:23:01;;;;;;;3.42;1.88;;;;;;;;;;10287937;28;20910;-83
2022/09/19 19:28:04;;;;;;;2.13;1.52;;;;;;;;;;10285849;28;20496;-84
2022/09/19 19:33:07;;;;;;;2.90;1.53;;;;;;;;;;10286574;28;20401;-82
2022/09/19 19:38:08;;;;;;;2.33;1.50;;;;;;;;;;10282594;28;20445;-83
2022/09/19 19:43:12;;;;;;;2.50;1.52;;;;;;;;;;10284381;28;20790;-81
2022/09/19 19:48:14;;;;;;;2.53;2.00;;;;;;;;;;10286634;28;21058;-81
2022/09/19 19:53:16;;;;;;;3.33;2.10;;;;;;;;;;10283788;28;20495;-81
2022/09/19 19:58:19;;;;;;;2.60;1.90;;;;;;;;;;10284720;28;20526;-80
2022/09/19 20:03:21;;;;;;;3.95;1.92;;;;;;;;;;10298560;28;20432;-81
2022/09/19 20:08:23;;;;;;;3.80;1.80;;;;;;;;;;10285733;28;20494;-81
2022/09/19 20:13:28;;;;;;;3.67;1.73;;;;;;;;;;10288464;28;20913;-82
2022/09/19 20:18:30;;;;;;;5.85;2.00;;;;;;;;;;10285325;28;20530;-81
2022/09/19 20:23:32;;;;;;;2.85;1.73;;;;;;;;;;10286091;28;20521;-81
2022/09/19 20:28:36;;;;;;;3.10;2.10;;;;;;;;;;10288482;28;20554;-82
2022/09/19 20:33:38;;;;;;;3.28;2.22;;;;;;;;;;10296572;28;20438;-82
2022/09/19 20:38:41;;;;;;;3.55;1.95;;;;;;;;;;10300111;28;20453;-82
2022/09/19 20:43:44;;;;;;;2.92;2.10;;;;;;;;;;10295372;28;20540;-84
2022/09/19 20:48:46;;;;;;;4.53;2.38;;;;;;;;;;10296117;28;20429;-83
2022/09/19 20:53:53;;;;;;;3.17;2.30;;;;;;;;;;10299184;28;20414;-83
2022/09/19 20:58:57;;;;;;;3.97;2.53;;;;;;;;;;10304908;28;20418;-83
2022/09/19 21:03:59;;;;;;;3.45;2.10;;;;;;;;;;10287852;28;20420;-82
2022/09/19 21:09:01;;;;;;;3.93;2.13;;;;;;;;;;10292097;28;20419;-83
2022/09/19 21:14:04;;;;;;;5.00;2.00;;;;;;;;;;10290026;28;20881;-81
2022/09/19 21:19:06;;;;;;;3.40;2.00;;;;;;;;;;10286474;28;20406;-82
2022/09/19 21:24:08;;;;;;;3.93;2.10;;;;;;;;;;10286558;28;20437;-81
2022/09/19 21:29:12;;;;;;;2.10;1.80;;;;;;;;;;10308126;28;20487;-81
2022/09/19 21:34:15;;;;;;;4.38;2.00;;;;;;;;;;10309625;28;20405;-81
2022/09/19 21:39:17;;;;;;;3.20;1.83;;;;;;;;;;10291862;28;20918;-83
2022/09/19 21:44:20;;;;;;;3.10;1.90;;;;;;;;;;10289598;28;20433;-82
2022/09/19 21:49:22;;;;;;;2.20;1.60;;;;;;;;;;10321765;28;20780;-81
2022/09/19 21:54:24;;;;;;;2.22;1.25;;;;;;;;;;10308276;28;20493;-82
2022/09/19 21:59:27;;;;;;;4.13;1.10;;;;;;;;;;10286214;28;20493;-82
2022/09/19 22:04:29;;;;;;;2.40;1.00;;;;;;;;;;10283656;28;20970;-83
2022/09/19 22:09:30;;;;;;;1.05;0.73;;;;;;;;;;10287044;28;20490;-82
2022/09/19 22:14:34;;;;;;;1.50;0.90;;;;;;;;;;10286417;28;20487;-81
2022/09/19 22:19:36;;;;;;;1.15;0.80;;;;;;;;;;10285332;28;21152;-82
2022/09/19 22:24:38;;;;;;;3.00;0.85;;;;;;;;;;10286935;28;20450;-82
2022/09/19 22:29:41;;;;;;;1.40;0.80;;;;;;;;;;10284658;28;20895;-82
2022/09/19 22:34:43;;;;;;;1.05;0.70;;;;;;;;;;10284730;28;20890;-83
2022/09/19 22:39:44;;;;;;;2.40;0.88;;;;;;;;;;10284361;28;20450;-82
2022/09/19 22:44:48;;;;;;;1.77;0.97;;;;;;;;;;10284001;28;20439;-81
2022/09/19 22:49:50;;;;;;;1.20;1.10;;;;;;;;;;10284391;28;20462;-81
2022/09/19 22:54:52;;;;;;;1.80;0.80;;;;;;;;;;10293111;28;20413;-82
2022/09/19 22:59:55;;;;;;;1.80;1.00;;;;;;;;;;10286771;28;20904;-80
2022/09/19 23:04:57;;;;;;;1.00;0.73;;;;;;;;;;10286589;28;20422;-82
2022/09/19 23:10:00;;;;;;;2.08;0.80;;;;;;;;;;10283194;28;20402;-81
2022/09/19 23:15:04;;;;;;;3.85;0.75;;;;;;;;;;10285636;28;20406;-82
2022/09/19 23:20:06;;;;;;;0.60;0.60;;;;;;;;;;10284897;28;20444;-82
2022/09/19 23:25:09;;;;;;;0.70;0.47;;;;;;;;;;10288598;28;20513;-82
2022/09/19 23:30:13;;;;;;;0.50;0.50;;;;;;;;;;10309263;28;20814;-82
2022/09/19 23:35:15;;;;;;;1.30;0.40;;;;;;;;;;10313900;28;20498;-83
2022/09/19 23:40:17;;;;;;;1.10;0.50;;;;;;;;;;10314007;28;20492;-83
2022/09/19 23:45:20;;;;;;;1.10;0.40;;;;;;;;;;10315497;28;20460;-83
2022/09/19 23:50:22;;;;;;;2.60;0.70;;;;;;;;;;10322390;28;20428;-83
2022/09/19 23:55:24;;;;;;;1.38;0.70;;;;;;;;;;10313439;28;20912;-83
